Time;durP1;ratioP1;P1;durP2;ratioP2;P2;SDS_P1;SDS_P2;PMS_P1;PMS_P2;Temp;Humidity;BMP_temperature;BMP_pressure;BME280_temperature;BME280_humidity;BME280_pressure;Samples;Min_cycle;Max_cycle;Signal;HPM_P1;HPM_P2
2022/04/22 00:00:31;;;;;;;48.90;31.30;;;;;;;8.46;72.18;98134.90;220481;1273;23334;-71
2022/04/22 00:05:37;;;;;;;55.30;34.10;;;;;;;8.45;72.18;98128.57;220340;1274;293301;-71
2022/04/22 00:16:13;;;;;;;52.30;33.20;;;;;;;8.41;72.45;98125.65;220931;1273;22661;-71
2022/04/22 00:21:16;;;;;;;49.80;31.50;;;;;;;8.39;72.61;98123.02;220719;1273;22742;-71
2022/04/22 00:26:20;;;;;;;52.70;32.30;;;;;;;8.39;72.67;98120.41;220390;1273;22543;-72
2022/04/22 00:31:22;;;;;;;56.30;39.30;;;;;;;8.39;72.84;98116.73;220377;1273;22842;-72
2022/04/22 00:36:26;;;;;;;66.40;46.80;;;;;;;8.40;72.69;98113.33;220607;1273;22493;-70
2022/04/22 00:41:29;;;;;;;71.20;53.00;;;;;;;8.38;72.89;98111.93;220725;1274;25289;-71
2022/04/22 00:46:32;;;;;;;74.60;53.40;;;;;;;8.36;73.01;98115.00;220542;1273;25324;-72
2022/04/22 00:51:35;;;;;;;75.90;57.50;;;;;;;8.34;73.20;98110.17;220871;1274;22644;-71
2022/04/22 00:56:39;;;;;;;80.00;60.60;;;;;;;8.35;73.23;98104.34;220653;1274;22531;-71
2022/04/22 01:01:42;;;;;;;77.70;59.50;;;;;;;8.36;73.32;98093.55;220531;1274;23499;-72
2022/04/22 01:12:07;;;;;;;82.80;61.00;;;;;;;8.37;73.32;98089.69;220385;1273;22559;-72
2022/04/22 01:17:10;;;;;;;82.50;62.90;;;;;;;8.38;73.27;98092.35;220771;1274;22560;-71
2022/04/22 01:22:13;;;;;;;68.90;45.70;;;;;;;8.36;73.44;98091.52;220458;1273;22596;-71
2022/04/22 01:27:16;;;;;;;63.70;42.50;;;;;;;8.32;73.35;98082.24;220364;1274;22699;-72
2022/04/22 01:32:18;;;;;;;58.10;38.90;;;;;;;8.27;73.60;98078.80;220411;1274;22879;-72
2022/04/22 01:37:21;;;;;;;59.00;37.00;;;;;;;8.21;73.80;98074.14;220478;1274;23492;-70
2022/04/22 01:42:25;;;;;;;53.40;35.10;;;;;;;8.17;73.89;98073.81;220856;1273;25321;-71
2022/04/22 01:47:29;;;;;;;48.00;32.70;;;;;;;8.15;74.04;98076.89;221095;1273;25388;-71
2022/04/22 01:52:32;;;;;;;47.00;31.20;;;;;;;8.13;74.02;98075.95;220904;1273;23185;-72
2022/04/22 01:57:35;;;;;;;52.00;33.90;;;;;;;8.12;74.05;98072.60;220572;1273;22582;-72
2022/04/22 02:02:37;;;;;;;54.70;33.20;;;;;;;8.08;74.42;98065.63;220644;1275;22537;-70
2022/04/22 02:07:49;;;;;;;52.90;34.50;;;;;;;8.03;74.55;98053.64;220687;1274;22580;-72
2022/04/22 02:13:04;;;;;;;52.60;34.60;;;;;;;7.97;74.57;98050.02;220363;1273;24355;-70
2022/04/22 02:18:07;;;;;;;50.20;32.30;;;;;;;7.93;74.64;98044.77;218966;1277;25353;-71
2022/04/22 02:23:09;;;;;;;50.50;31.10;;;;;;;7.89;74.92;98038.63;220837;1273;22565;-71
2022/04/22 02:33:35;;;;;;;52.90;31.50;;;;;;;7.82;75.23;98037.18;220423;1274;24240;-72
2022/04/22 02:38:38;;;;;;;50.20;33.20;;;;;;;7.79;75.50;98036.58;220352;1274;23042;-71
2022/04/22 02:49:02;;;;;;;52.40;33.10;;;;;;;7.73;75.69;98039.86;220492;1274;22592;-70
2022/04/22 02:54:05;;;;;;;57.80;36.80;;;;;;;7.71;75.99;98033.48;219205;1274;25270;-72
2022/04/22 02:59:09;;;;;;;57.50;36.90;;;;;;;7.69;75.83;98034.42;220391;1273;22605;-72
2022/04/22 03:04:12;;;;;;;59.40;37.10;;;;;;;7.66;75.88;98034.20;220592;1273;22559;-71
2022/04/22 03:09:14;;;;;;;64.90;38.60;;;;;;;7.65;76.00;98030.86;219440;1275;22531;-72
2022/04/22 03:14:18;;;;;;;64.20;39.00;;;;;;;7.62;75.98;98024.73;220920;1273;22583;-72
2022/04/22 03:19:23;;;;;;;60.80;38.00;;;;;;;7.62;76.36;98019.38;220417;1277;22472;-71
2022/04/22 03:24:26;;;;;;;55.40;35.40;;;;;;;7.62;76.48;98016.44;220983;1273;24309;-71
2022/04/22 03:29:28;;;;;;;56.60;37.00;;;;;;;7.62;76.61;98008.66;220358;1274;22553;-71
2022/04/22 03:34:32;;;;;;;60.30;38.60;;;;;;;7.60;76.69;98004.48;220589;1274;22564;-72
2022/04/22 03:39:35;;;;;;;60.20;37.30;;;;;;;7.58;76.81;98004.54;220463;1274;24411;-72
2022/04/22 03:44:38;;;;;;;60.20;38.40;;;;;;;7.58;76.88;97998.90;220512;1277;22538;-72
2022/04/22 03:49:41;;;;;;;54.40;34.80;;;;;;;7.58;76.88;97994.06;220496;1274;25371;-72
2022/04/22 03:54:43;;;;;;;53.30;33.90;;;;;;;7.57;76.74;97987.83;220690;1274;22617;-71
2022/04/22 03:59:47;;;;;;;47.10;31.80;;;;;;;7.58;77.09;97979.60;220571;1274;22573;-72
2022/04/22 04:04:50;;;;;;;49.00;32.50;;;;;;;7.59;77.04;97981.51;220396;1274;22563;-72
2022/04/22 04:26:12;;;;;;;47.20;31.60;;;;;;;7.70;77.32;97989.89;220733;1274;22535;-71
2022/04/22 04:31:23;;;;;;;45.70;30.40;;;;;;;7.75;77.47;97997.83;220727;1275;25973;-71
2022/04/22 04:36:26;;;;;;;45.20;29.50;;;;;;;7.82;77.44;98003.80;219568;1276;22567;-71
2022/04/22 04:41:31;;;;;;;45.20;29.70;;;;;;;7.87;77.31;98008.10;220633;1275;22549;-70
2022/04/22 04:46:34;;;;;;;47.20;29.20;;;;;;;7.91;77.31;98008.41;220698;1275;25931;-72
2022/04/22 04:51:55;;;;;;;44.00;28.90;;;;;;;7.97;77.49;98019.96;220524;1274;24268;-70
2022/04/22 04:57:54;;;;;;;40.40;26.40;;;;;;;8.06;77.68;98019.40;220778;1274;25897;-72
2022/04/22 05:03:16;;;;;;;42.50;26.90;;;;;;;8.15;77.70;98025.02;219479;1275;22560;-72
2022/04/22 05:08:19;;;;;;;39.80;27.00;;;;;;;8.27;77.61;98021.05;220829;1274;22651;-71
2022/04/22 05:13:22;;;;;;;40.90;26.70;;;;;;;8.38;77.29;98024.91;220683;1275;22607;-72
2022/04/22 05:18:28;;;;;;;40.60;26.90;;;;;;;8.49;77.29;98030.17;220774;1274;22605;-72
2022/04/22 05:23:32;;;;;;;42.70;27.80;;;;;;;8.58;77.21;98020.73;220528;1275;22830;-72
2022/04/22 05:28:35;;;;;;;39.40;26.80;;;;;;;8.68;77.16;98011.91;220415;1274;22590;-71
2022/04/22 05:33:37;;;;;;;43.00;28.50;;;;;;;8.80;76.99;98011.11;220583;1275;22559;-71
2022/04/22 05:38:41;;;;;;;47.40;30.60;;;;;;;8.91;76.97;98013.31;220375;1274;25387;-72
2022/04/22 05:43:43;;;;;;;47.10;29.70;;;;;;;9.05;76.88;97994.45;220775;1273;22600;-71
2022/04/22 05:48:46;;;;;;;43.70;29.00;;;;;;;9.24;76.63;97998.09;220990;1274;25258;-72
2022/04/22 05:53:49;;;;;;;101.50;35.10;;;;;;;9.39;76.23;98004.70;220877;1274;22553;-72
2022/04/22 05:58:52;;;;;;;54.00;31.00;;;;;;;9.53;75.84;98005.42;220859;1275;23243;-71
2022/04/22 06:03:54;;;;;;;50.90;30.20;;;;;;;9.67;75.60;98001.59;221439;1274;22948;-70
2022/04/22 06:14:19;;;;;;;61.30;29.40;;;;;;;10.02;75.14;97994.54;220789;1275;22592;-71
2022/04/22 06:19:21;;;;;;;86.80;32.40;;;;;;;10.25;74.75;97988.70;220891;1274;23170;-72
2022/04/22 06:24:27;;;;;;;37.50;24.70;;;;;;;10.50;74.42;97990.86;220867;1274;23770;-70
2022/04/22 06:29:30;;;;;;;39.20;25.80;;;;;;;10.75;74.14;97986.52;220824;1274;23604;-71
2022/04/22 06:34:32;;;;;;;38.40;25.80;;;;;;;11.01;73.83;97989.64;220880;1274;22827;-71
2022/04/22 06:45:46;;;;;;;36.30;25.60;;;;;;;11.25;73.20;97991.60;220916;1274;22561;-71
2022/04/22 06:50:23;;;;;;;29.80;20.40;;;;;;;11.69;71.81;97996.06;220964;1273;22489;-71
2022/04/22 06:55:26;;;;;;;30.10;20.70;;;;;;;11.75;71.01;97991.48;220894;1274;24301;-71
2022/04/22 07:00:32;;;;;;;45.70;20.80;;;;;;;11.88;70.79;97996.41;220889;1273;22704;-72
2022/04/22 07:05:39;;;;;;;24.70;17.30;;;;;;;11.98;70.25;97997.77;221086;1273;22874;-71
2022/04/22 07:10:50;;;;;;;26.20;18.40;;;;;;;11.96;69.63;98003.36;220976;1275;22561;-72
2022/04/22 07:15:54;;;;;;;26.20;17.70;;;;;;;12.04;69.37;98005.98;220858;1275;22603;-72
2022/04/22 07:20:58;;;;;;;25.10;17.60;;;;;;;12.03;68.96;98001.81;220955;1274;22601;-71
2022/04/22 07:26:10;;;;;;;21.10;16.00;;;;;;;12.07;68.81;98002.38;220726;1273;25462;-72
2022/04/22 07:31:16;;;;;;;24.60;16.40;;;;;;;12.21;68.57;98002.50;220920;1274;23340;-71
2022/04/22 07:36:22;;;;;;;17.90;13.90;;;;;;;12.35;68.32;97999.88;219702;1273;22552;-71
2022/04/22 07:41:33;;;;;;;18.70;14.50;;;;;;;12.51;67.87;97998.34;220764;1273;22500;-72
2022/04/22 07:46:49;;;;;;;18.30;13.00;;;;;;;12.70;67.30;98000.85;220983;1273;22541;-72
2022/04/22 07:51:56;;;;;;;17.80;12.60;;;;;;;12.80;66.63;98003.04;221206;1274;22615;-73
2022/04/22 07:57:01;;;;;;;17.20;13.20;;;;;;;12.91;66.19;98002.42;220881;1273;23014;-73
2022/04/22 08:02:07;;;;;;;18.30;13.60;;;;;;;13.03;65.92;97996.25;220900;1273;22621;-73
2022/04/22 08:07:16;;;;;;;14.70;11.60;;;;;;;13.10;65.32;98000.85;220802;1273;22564;-72
2022/04/22 08:12:26;;;;;;;15.00;11.00;;;;;;;13.20;64.73;97997.48;220991;1273;24211;-72
2022/04/22 08:17:38;;;;;;;13.50;10.20;;;;;;;13.12;64.10;97989.20;220800;1273;23812;-72
2022/04/22 08:22:44;;;;;;;16.20;12.00;;;;;;;13.18;64.21;97988.02;220798;1274;22576;-71
2022/04/22 08:27:47;;;;;;;14.90;11.00;;;;;;;13.45;64.19;97978.95;220905;1273;22577;-72
2022/04/22 08:32:51;;;;;;;13.90;11.20;;;;;;;13.69;63.55;97981.77;220906;1273;22602;-71
2022/04/22 08:37:54;;;;;;;14.60;10.40;;;;;;;13.91;63.36;97979.02;221041;1273;22576;-71
2022/04/22 08:43:00;;;;;;;12.90;10.10;;;;;;;14.34;63.24;97975.05;221022;1273;25532;-71
2022/04/22 08:53:28;;;;;;;17.30;11.60;;;;;;;14.79;60.98;97963.01;220725;1274;22616;-71
2022/04/22 08:58:31;;;;;;;17.60;12.00;;;;;;;14.98;60.94;97957.52;220755;1273;22674;-72
2022/04/22 09:03:34;;;;;;;13.80;11.70;;;;;;;15.13;59.96;97955.39;220776;1273;24702;-71
2022/04/22 09:08:40;;;;;;;16.00;12.20;;;;;;;15.11;59.39;97949.69;220769;1274;22541;-71
2022/04/22 09:13:49;;;;;;;16.10;11.90;;;;;;;15.11;58.89;97945.77;220985;1273;22540;-72
2022/04/22 09:19:03;;;;;;;18.10;13.00;;;;;;;15.17;58.77;97942.63;220985;1274;22650;-72
2022/04/22 09:24:14;;;;;;;18.60;13.50;;;;;;;15.30;58.31;97939.23;220719;1274;24228;-72
2022/04/22 09:29:22;;;;;;;16.80;12.80;;;;;;;15.50;57.99;97935.14;220684;1273;22743;-72
2022/04/22 09:35:24;;;;;;;15.90;12.30;;;;;;;15.66;57.03;97934.17;220743;1273;25972;-71
2022/04/22 09:46:05;;;;;;;18.10;11.60;;;;;;;15.78;56.76;97926.67;220993;1273;25315;-71
2022/04/22 09:51:22;;;;;;;17.90;13.80;;;;;;;15.70;55.89;97933.53;220846;1273;25309;-72
2022/04/22 09:56:29;;;;;;;21.90;14.50;;;;;;;15.52;56.35;97932.77;221177;1274;25233;-71
2022/04/22 10:01:33;;;;;;;18.70;15.20;;;;;;;15.42;56.79;97936.19;220739;1273;25452;-72
2022/04/22 10:06:59;;;;;;;18.60;14.40;;;;;;;15.32;56.45;97941.52;220651;1273;23371;-72
2022/04/22 10:12:06;;;;;;;24.40;16.60;;;;;;;15.19;56.52;97944.23;221059;1274;26502;-72
2022/04/22 10:17:17;;;;;;;22.10;15.50;;;;;;;15.14;56.82;97946.01;220715;1273;22709;-71
2022/04/22 10:22:20;;;;;;;25.60;18.60;;;;;;;15.15;57.15;97947.73;220693;1273;25347;-71
2022/04/22 10:27:24;;;;;;;25.90;17.80;;;;;;;15.03;56.90;97955.59;220779;1273;22569;-72
2022/04/22 10:32:27;;;;;;;25.60;17.80;;;;;;;14.84;56.97;97957.09;220931;1273;25264;-71
2022/04/22 10:37:34;;;;;;;27.80;19.10;;;;;;;14.83;57.65;97957.90;221001;1273;24068;-72
2022/04/22 10:42:39;;;;;;;26.80;17.70;;;;;;;14.62;57.34;97950.95;220855;1273;25283;-72
2022/04/22 10:47:41;;;;;;;26.30;19.00;;;;;;;14.32;58.04;97944.30;220760;1273;22704;-72
2022/04/22 10:53:01;;;;;;;25.40;17.60;;;;;;;14.24;58.79;97942.29;221159;1273;25258;-71
2022/04/22 10:58:15;;;;;;;32.90;19.70;;;;;;;14.22;58.83;97946.09;220705;1273;26217;-71
2022/04/22 11:03:34;;;;;;;30.10;19.50;;;;;;;14.15;58.97;97949.77;220712;1273;22591;-72
2022/04/22 11:08:40;;;;;;;25.80;19.10;;;;;;;14.01;59.19;97941.91;220861;1273;22788;-71
2022/04/22 11:13:56;;;;;;;30.40;20.00;;;;;;;13.89;59.57;97940.41;220740;1273;24354;-72
2022/04/22 11:19:19;;;;;;;29.30;19.20;;;;;;;13.83;59.72;97933.74;219057;1273;25940;-71
2022/04/22 11:24:27;;;;;;;27.00;19.50;;;;;;;13.80;59.83;97929.23;221010;1273;23215;-72
2022/04/22 11:29:30;;;;;;;25.20;16.80;;;;;;;13.79;59.87;97930.38;220769;1273;23879;-71
2022/04/22 11:34:45;;;;;;;30.10;21.10;;;;;;;13.88;60.04;97929.21;220847;1273;22615;-71
2022/04/22 11:39:53;;;;;;;28.70;18.80;;;;;;;14.25;60.58;97918.48;221185;1273;22545;-71
2022/04/22 11:45:11;;;;;;;29.20;19.60;;;;;;;14.78;59.83;97913.61;220685;1274;22599;-73
2022/04/22 11:50:22;;;;;;;23.70;16.60;;;;;;;15.18;59.08;97913.83;221383;1273;23323;-71
2022/04/22 11:55:26;;;;;;;22.60;16.50;;;;;;;15.22;57.89;97910.86;220559;1273;22615;-71
2022/04/22 12:06:02;;;;;;;25.20;16.10;;;;;;;15.24;57.77;97898.45;220605;1273;271624;-73
2022/04/22 12:11:17;;;;;;;20.00;14.20;;;;;;;15.30;57.42;97892.59;220876;1273;24592;-71
2022/04/22 12:16:53;;;;;;;20.40;14.20;;;;;;;15.26;57.06;97885.39;220811;1273;22576;-73
2022/04/22 12:22:01;;;;;;;19.40;14.30;;;;;;;15.22;57.04;97877.50;220793;1274;23068;-73
2022/04/22 12:27:26;;;;;;;19.30;13.80;;;;;;;15.21;56.72;97879.64;220800;1273;23103;-74
2022/04/22 12:32:32;;;;;;;22.70;14.30;;;;;;;15.23;56.73;97879.99;220895;1274;22573;-73
2022/04/22 12:38:03;;;;;;;15.60;11.80;;;;;;;15.27;56.79;97871.24;221050;1273;27772;-73
2022/04/22 12:43:31;;;;;;;13.90;10.80;;;;;;;15.32;56.41;97869.23;220741;1273;23807;-73
2022/04/22 12:54:05;;;;;;;15.30;10.70;;;;;;;15.17;56.01;97863.84;220997;1273;22723;-72
2022/04/22 12:59:08;;;;;;;16.60;11.70;;;;;;;15.17;56.00;97868.02;220691;1273;22793;-71
2022/04/22 13:04:24;;;;;;;15.10;11.80;;;;;;;15.20;56.25;97866.00;220984;1273;22547;-71
2022/04/22 13:09:29;;;;;;;15.60;10.30;;;;;;;15.28;56.08;97861.64;220923;1273;22550;-72
2022/04/22 13:14:45;;;;;;;12.70;10.80;;;;;;;15.27;55.84;97866.90;220690;1273;22603;-71
2022/04/22 13:19:53;;;;;;;13.90;7.90;;;;;;;15.15;55.75;97862.11;220804;1273;22530;-70
2022/04/22 13:25:01;;;;;;;10.40;7.90;;;;;;;15.08;55.74;97859.36;220991;1273;22606;-71
2022/04/22 13:30:15;;;;;;;9.60;7.20;;;;;;;15.01;55.52;97860.45;221104;1273;22612;-71
2022/04/22 13:35:20;;;;;;;10.10;7.20;;;;;;;14.94;55.40;97859.48;220943;1273;22645;-71
2022/04/22 13:40:38;;;;;;;12.40;8.20;;;;;;;14.89;55.41;97862.79;221165;1272;24172;-71
2022/04/22 13:56:41;;;;;;;11.00;7.90;;;;;;;14.78;55.66;97854.28;220993;1273;22570;-72
2022/04/22 14:01:44;;;;;;;12.00;8.20;;;;;;;14.74;55.34;97852.17;221254;1273;22554;-72
2022/04/22 14:06:47;;;;;;;9.60;7.90;;;;;;;14.59;55.13;97853.46;220667;1273;23093;-73
2022/04/22 14:11:50;;;;;;;10.30;8.30;;;;;;;14.44;55.42;97854.61;220591;1274;24225;-73
2022/04/22 14:16:52;;;;;;;11.20;8.70;;;;;;;14.41;55.88;97863.20;220328;1274;22567;-72
2022/04/22 14:21:57;;;;;;;9.70;8.50;;;;;;;14.37;55.98;97866.69;220829;1273;25240;-72
2022/04/22 14:27:07;;;;;;;10.70;8.50;;;;;;;14.27;56.19;97880.39;220827;1273;25381;-72
2022/04/22 14:32:13;;;;;;;14.10;10.10;;;;;;;13.89;56.27;97881.93;220575;1273;24317;-72
2022/04/22 14:37:28;;;;;;;16.60;12.20;;;;;;;13.43;57.28;97891.85;220915;1273;23188;-72
2022/04/22 14:42:33;;;;;;;13.50;11.50;;;;;;;13.07;58.08;97899.04;220878;1273;22538;-72
2022/04/22 14:47:35;;;;;;;22.50;16.90;;;;;;;12.67;59.07;97901.09;220977;1273;24044;-73
2022/04/22 14:52:43;;;;;;;27.20;20.50;;;;;;;12.21;60.08;97906.62;220743;1273;24426;-72
2022/04/22 14:57:45;;;;;;;26.30;14.30;;;;;;;11.84;60.92;97913.33;220944;1273;25481;-72
2022/04/22 15:02:48;;;;;;;22.00;15.20;;;;;;;11.43;62.23;97922.39;220804;1273;22742;-72
2022/04/22 15:07:50;;;;;;;22.10;16.20;;;;;;;10.98;63.24;97919.67;220408;1273;27432;-73
2022/04/22 15:12:52;;;;;;;21.00;15.70;;;;;;;10.66;64.18;97928.36;220499;1273;22556;-74
2022/04/22 15:28:47;;;;;;;18.90;14.50;;;;;;;9.94;66.51;97924.86;220342;1274;22933;-73
2022/04/22 15:33:49;;;;;;;20.30;13.10;;;;;;;9.83;67.06;97920.41;220324;1273;25824;-73
2022/04/22 15:38:53;;;;;;;21.00;15.10;;;;;;;9.75;67.55;97922.94;220457;1273;22778;-73
2022/04/22 15:43:57;;;;;;;21.40;15.00;;;;;;;9.68;67.72;97917.12;220712;1275;22537;-72
2022/04/22 15:48:59;;;;;;;16.50;12.60;;;;;;;9.60;68.05;97920.23;220506;1276;24309;-73
2022/04/22 15:54:02;;;;;;;15.30;12.80;;;;;;;9.54;68.40;97916.48;220406;1273;24313;-73
2022/04/22 15:59:05;;;;;;;16.80;13.20;;;;;;;9.51;68.55;97921.73;220650;1273;22557;-73
2022/04/22 16:04:09;;;;;;;14.60;10.80;;;;;;;9.56;68.93;97921.66;220756;1273;22531;-73
2022/04/22 16:09:14;;;;;;;14.30;9.30;;;;;;;9.62;68.65;97928.59;220864;1273;22721;-72
2022/04/22 16:19:42;;;;;;;10.10;7.80;;;;;;;9.59;68.35;97928.38;220495;1273;24288;-73
2022/04/22 16:24:44;;;;;;;10.00;7.60;;;;;;;9.50;68.30;97928.33;220599;1273;25244;-73
2022/04/22 16:29:50;;;;;;;9.40;7.80;;;;;;;9.43;68.26;97927.58;220534;1273;22587;-73
2022/04/22 16:35:13;;;;;;;7.90;6.00;;;;;;;9.39;68.42;97930.31;220581;1273;25310;-72
2022/04/22 16:40:28;;;;;;;7.70;5.90;;;;;;;9.37;68.13;97929.19;220739;1273;23068;-73
2022/04/22 16:45:33;;;;;;;10.30;8.40;;;;;;;9.32;68.11;97934.64;220567;1273;23047;-72
2022/04/22 16:50:37;;;;;;;11.50;10.00;;;;;;;9.26;68.26;97935.73;220527;1274;24296;-73
2022/04/22 16:55:39;;;;;;;11.60;9.40;;;;;;;9.18;68.52;97936.66;220764;1273;22557;-71
2022/04/22 17:00:41;;;;;;;10.30;8.80;;;;;;;9.09;68.63;97936.02;220393;1273;23038;-72
2022/04/22 17:05:44;;;;;;;7.90;6.50;;;;;;;9.00;68.71;97943.54;220436;1274;24428;-73
2022/04/22 17:10:59;;;;;;;8.30;6.80;;;;;;;8.86;69.02;97947.10;220743;1273;22586;-72
2022/04/22 17:27:13;;;;;;;11.30;8.50;;;;;;;8.60;69.60;97951.34;220478;1273;22569;-73
2022/04/22 17:32:18;;;;;;;11.00;8.40;;;;;;;8.57;69.70;97954.39;220681;1273;26520;-72
2022/04/22 17:37:21;;;;;;;10.40;8.20;;;;;;;8.54;70.12;97951.77;220526;1273;22547;-72
2022/04/22 17:42:23;;;;;;;10.10;8.50;;;;;;;8.47;69.93;97954.98;220486;1274;24324;-73
2022/04/22 17:47:28;;;;;;;16.50;12.20;;;;;;;8.42;70.07;97958.48;220685;1273;22578;-72
2022/04/22 17:52:33;;;;;;;13.60;10.50;;;;;;;8.36;70.29;97961.88;220690;1273;22578;-72
2022/04/22 17:57:36;;;;;;;13.40;10.80;;;;;;;8.29;70.35;97963.11;220503;1274;24406;-73
2022/04/22 18:02:48;;;;;;;13.50;10.60;;;;;;;8.24;70.75;97968.10;220782;1273;22882;-73
2022/04/22 18:08:06;;;;;;;10.00;7.90;;;;;;;8.17;70.60;97968.16;220833;1273;22543;-72
2022/04/22 18:13:12;;;;;;;11.30;9.20;;;;;;;8.08;70.94;97975.29;220706;1273;22544;-72
2022/04/22 18:18:17;;;;;;;11.10;9.80;;;;;;;8.02;70.79;97975.48;220848;1273;22672;-73
2022/04/22 18:23:38;;;;;;;13.80;11.10;;;;;;;7.99;71.09;97976.98;220748;1273;24489;-72
2022/04/22 18:28:43;;;;;;;15.30;11.20;;;;;;;7.98;71.04;97977.89;220881;1274;22538;-72
2022/04/22 18:33:58;;;;;;;13.60;10.80;;;;;;;7.96;71.21;97972.82;220926;1273;25304;-72
2022/04/22 18:39:07;;;;;;;12.10;9.30;;;;;;;7.94;71.02;97975.30;220745;1273;25445;-71
2022/04/22 18:44:10;;;;;;;12.30;9.70;;;;;;;7.92;70.93;97974.11;220870;1274;25258;-72
2022/04/22 18:49:13;;;;;;;13.10;8.60;;;;;;;7.91;71.31;97970.13;220748;1273;22557;-73
2022/04/22 18:54:15;;;;;;;13.70;10.40;;;;;;;7.90;71.19;97973.50;220571;1273;22561;-73
2022/04/22 18:59:18;;;;;;;14.30;10.50;;;;;;;7.88;71.09;97977.10;221132;1273;23122;-72
2022/04/22 19:04:23;;;;;;;15.10;11.70;;;;;;;7.88;71.03;97972.89;220604;1274;22535;-73
2022/04/22 19:09:32;;;;;;;14.50;10.50;;;;;;;7.90;71.05;97972.44;220798;1273;22566;-74
2022/04/22 19:14:45;;;;;;;13.20;10.00;;;;;;;7.89;71.10;97971.70;220668;1274;24253;-73
2022/04/22 19:19:52;;;;;;;13.10;9.90;;;;;;;7.85;70.89;97964.81;220833;1273;25605;-72
2022/04/22 19:24:54;;;;;;;13.20;10.20;;;;;;;7.83;70.64;97960.30;220498;1274;22569;-73
2022/04/22 19:29:56;;;;;;;14.90;10.80;;;;;;;7.79;70.57;97957.77;220617;1274;22555;-74
2022/04/22 19:34:58;;;;;;;14.70;10.80;;;;;;;7.76;70.45;97953.97;220779;1273;22558;-72
2022/04/22 19:45:21;;;;;;;15.70;11.10;;;;;;;7.72;70.07;97948.70;220536;1274;22583;-73
2022/04/22 19:50:24;;;;;;;15.70;10.40;;;;;;;7.70;70.08;97947.30;220445;1274;22554;-72
2022/04/22 19:55:33;;;;;;;13.60;10.70;;;;;;;7.69;69.86;97950.23;220471;1273;25249;-72
2022/04/22 20:00:43;;;;;;;16.00;11.00;;;;;;;7.68;69.67;97946.79;220547;1273;25236;-73
2022/04/22 20:05:47;;;;;;;13.10;10.40;;;;;;;7.67;69.38;97942.38;220893;1273;24182;-76
2022/04/22 20:11:08;;;;;;;16.10;10.50;;;;;;;7.64;69.12;97943.90;220433;1274;23525;-73
2022/04/22 20:16:11;;;;;;;12.80;10.00;;;;;;;7.64;69.02;97941.61;220310;1274;23114;-72
2022/04/22 20:21:15;;;;;;;12.60;9.70;;;;;;;7.63;68.97;97936.78;220476;1273;22624;-73
2022/04/22 20:26:20;;;;;;;15.20;11.40;;;;;;;7.61;68.59;97941.55;220638;1273;25258;-73
2022/04/22 20:31:30;;;;;;;13.30;10.20;;;;;;;7.58;68.36;97945.97;220327;1273;22557;-73
2022/04/22 20:42:27;;;;;;;11.10;9.10;;;;;;;7.43;68.23;97937.80;220536;1274;25518;-73
2022/04/22 20:47:29;;;;;;;11.20;8.50;;;;;;;7.30;68.50;97935.05;220548;1274;22551;-72
2022/04/22 20:52:36;;;;;;;12.20;9.30;;;;;;;7.14;68.39;97935.68;220353;1273;22579;-72
2022/04/22 20:57:40;;;;;;;14.20;9.90;;;;;;;6.98;68.49;97936.73;220392;1273;25345;-72
2022/04/22 21:02:58;;;;;;;12.60;10.10;;;;;;;6.85;68.81;97944.45;220375;1273;22697;-72
2022/04/22 21:08:27;;;;;;;16.50;12.90;;;;;;;6.76;69.20;97947.48;220593;1273;25397;-72
2022/04/22 21:13:30;;;;;;;20.60;14.30;;;;;;;6.68;69.18;97945.75;220964;1273;22541;-72
2022/04/22 21:18:39;;;;;;;15.40;11.60;;;;;;;6.56;69.42;97937.19;220763;1274;22575;-73
2022/04/22 21:23:42;;;;;;;14.90;10.40;;;;;;;6.47;69.99;97940.33;220422;1274;22662;-73
2022/04/22 21:28:44;;;;;;;18.00;12.50;;;;;;;6.41;70.18;97937.66;220575;1274;24115;-72
2022/04/22 21:33:52;;;;;;;18.40;13.80;;;;;;;6.36;70.17;97936.34;220693;1274;23317;-73
2022/04/22 21:38:54;;;;;;;22.80;16.10;;;;;;;6.36;71.03;97928.31;220420;1274;25868;-72
2022/04/22 21:43:57;;;;;;;22.10;16.30;;;;;;;6.42;70.62;97929.20;220347;1273;24334;-73
2022/04/22 21:48:59;;;;;;;22.00;14.90;;;;;;;6.43;70.88;97924.67;220477;1273;22585;-73
2022/04/22 21:54:02;;;;;;;27.10;15.80;;;;;;;6.41;70.72;97924.90;220530;1274;25343;-72
2022/04/22 21:59:05;;;;;;;22.40;16.00;;;;;;;6.39;70.43;97922.25;220443;1274;25420;-73
2022/04/22 22:04:11;;;;;;;21.90;15.70;;;;;;;6.39;71.04;97920.30;220557;1276;23694;-72
2022/04/22 22:09:25;;;;;;;23.20;16.60;;;;;;;6.39;71.00;97923.66;220563;1274;24294;-72
2022/04/22 22:14:34;;;;;;;22.90;17.00;;;;;;;6.39;71.22;97919.98;220685;1277;22577;-72
2022/04/22 22:19:47;;;;;;;22.50;16.70;;;;;;;6.36;70.82;97917.03;220659;1273;25489;-71
2022/04/22 22:24:52;;;;;;;19.50;13.70;;;;;;;6.29;71.09;97917.79;220506;1274;24926;-72
2022/04/22 22:29:54;;;;;;;24.40;17.30;;;;;;;6.19;71.13;97915.39;220327;1274;23293;-73
2022/04/22 22:34:57;;;;;;;23.90;16.40;;;;;;;6.12;71.37;97917.47;220501;1274;25452;-72
2022/04/22 22:39:59;;;;;;;28.00;18.60;;;;;;;6.03;71.54;97915.42;220809;1273;25463;-73
2022/04/22 22:45:05;;;;;;;23.30;15.60;;;;;;;5.94;71.73;97914.71;220450;1277;23213;-71
2022/04/22 22:50:09;;;;;;;24.80;17.40;;;;;;;5.85;71.90;97918.23;220617;1274;25311;-73
2022/04/22 22:55:15;;;;;;;28.10;16.70;;;;;;;5.74;71.97;97919.39;220476;1275;25504;-72
2022/04/22 23:00:18;;;;;;;25.30;17.40;;;;;;;5.65;72.56;97917.42;220773;1275;23321;-72
2022/04/22 23:05:27;;;;;;;24.50;17.60;;;;;;;5.57;72.48;97917.64;220884;1274;22825;-72
2022/04/22 23:10:30;;;;;;;24.80;16.40;;;;;;;5.46;72.59;97917.88;221073;1274;22580;-72
2022/04/22 23:15:35;;;;;;;30.80;21.40;;;;;;;5.40;73.34;97911.70;220813;1277;24074;-72
2022/04/22 23:20:41;;;;;;;32.10;19.50;;;;;;;5.39;73.64;97912.13;220762;1277;23793;-70
2022/04/22 23:25:50;;;;;;;27.20;18.70;;;;;;;5.31;73.68;97906.65;221013;1275;26371;-72
2022/04/22 23:31:30;;;;;;;28.90;18.50;;;;;;;5.16;73.79;97910.04;220782;1275;24145;-73
2022/04/22 23:36:59;;;;;;;33.10;20.50;;;;;;;5.05;74.10;97909.23;220802;1277;22579;-71
2022/04/22 23:42:36;;;;;;;31.00;19.10;;;;;;;4.97;74.56;97909.38;220814;1274;24228;-72
2022/04/22 23:47:44;;;;;;;28.40;19.80;;;;;;;4.95;75.12;97910.13;220949;1275;25373;-73
2022/04/22 23:53:11;;;;;;;28.60;19.10;;;;;;;4.89;75.20;97910.10;220861;1274;24269;-72
2022/04/22 23:58:27;;;;;;;30.20;19.30;;;;;;;4.80;75.35;97905.63;220697;1274;22548;-72
